Terminal Aerodrome Forecast
Issued by NWS

Home | Current Version | Previous Version | Text Only | Print | Product List | Glossary On
Versions: 1 2 3 4 5 6 7 8 9 10 11 12 13 14
000
FTUS43 KEAX 252300
TAFSTJ
TAF
KSTJ 252334Z 2600/2624 35023G33KT P6SM -SN OVC013
      TEMPO 2600/2602 4SM -SN
     FM260200 36023G32KT P6SM VCSH OVC015
     FM261200 36018G25KT P6SM BKN020
     FM261800 36015G23KT P6SM SCT030=

USA.gov is the U.S. government's official web portal to all federal, state and local government web resources and services.